sensor_id;sensor_type;location;lat;lon;timestamp;pressure;altitude;pressure_sealevel;temperature;humidity
62946;BME280;52164;52.212;-1.010;2022-12-18T00:00:25;101239.63;;;-1.62;83.66
62946;BME280;52164;52.212;-1.010;2022-12-18T00:02:50;101238.84;;;-1.66;83.70
62946;BME280;52164;52.212;-1.010;2022-12-18T00:05:16;101236.21;;;-1.69;83.89
62946;BME280;52164;52.212;-1.010;2022-12-18T00:07:41;101233.02;;;-1.72;83.81
62946;BME280;52164;52.212;-1.010;2022-12-18T00:10:07;101231.70;;;-1.77;83.78
62946;BME280;52164;52.212;-1.010;2022-12-18T00:12:32;101228.65;;;-1.81;83.97
62946;BME280;52164;52.212;-1.010;2022-12-18T00:14:58;101230.35;;;-1.85;83.95
62946;BME280;52164;52.212;-1.010;2022-12-18T00:17:25;101235.25;;;-1.88;84.18
62946;BME280;52164;52.212;-1.010;2022-12-18T00:19:50;101231.63;;;-1.90;84.27
62946;BME280;52164;52.212;-1.010;2022-12-18T00:22:15;101226.52;;;-1.93;84.48
62946;BME280;52164;52.212;-1.010;2022-12-18T00:24:41;101222.30;;;-1.96;84.44
62946;BME280;52164;52.212;-1.010;2022-12-18T00:27:06;101219.29;;;-2.00;84.46
62946;BME280;52164;52.212;-1.010;2022-12-18T00:29:31;101213.12;;;-2.04;84.52
62946;BME280;52164;52.212;-1.010;2022-12-18T00:31:57;101213.42;;;-2.07;84.59
62946;BME280;52164;52.212;-1.010;2022-12-18T00:34:22;101216.39;;;-2.10;84.69
62946;BME280;52164;52.212;-1.010;2022-12-18T00:36:47;101221.66;;;-2.13;84.62
62946;BME280;52164;52.212;-1.010;2022-12-18T00:39:13;101222.84;;;-2.16;84.69
62946;BME280;52164;52.212;-1.010;2022-12-18T00:41:38;101229.10;;;-2.19;84.64
62946;BME280;52164;52.212;-1.010;2022-12-18T00:44:24;101225.16;;;-2.23;84.70
62946;BME280;52164;52.212;-1.010;2022-12-18T00:46:49;101224.62;;;-2.26;84.59
62946;BME280;52164;52.212;-1.010;2022-12-18T00:49:16;101223.63;;;-2.28;84.58
62946;BME280;52164;52.212;-1.010;2022-12-18T00:51:42;101219.54;;;-2.30;84.85
62946;BME280;52164;52.212;-1.010;2022-12-18T00:54:07;101215.04;;;-2.29;85.00
62946;BME280;52164;52.212;-1.010;2022-12-18T00:56:34;101210.00;;;-2.28;84.96
62946;BME280;52164;52.212;-1.010;2022-12-18T00:59:00;101202.13;;;-2.25;85.20
62946;BME280;52164;52.212;-1.010;2022-12-18T01:01:25;101201.88;;;-2.21;85.29
62946;BME280;52164;52.212;-1.010;2022-12-18T01:03:54;101203.87;;;-2.18;85.19
62946;BME280;52164;52.212;-1.010;2022-12-18T01:06:19;101203.19;;;-2.14;85.23
62946;BME280;52164;52.212;-1.010;2022-12-18T01:08:45;101205.22;;;-2.13;84.99
62946;BME280;52164;52.212;-1.010;2022-12-18T01:11:11;101208.98;;;-2.14;84.80
62946;BME280;52164;52.212;-1.010;2022-12-18T01:13:37;101207.55;;;-2.15;84.69
62946;BME280;52164;52.212;-1.010;2022-12-18T01:16:03;101207.02;;;-2.17;84.70
62946;BME280;52164;52.212;-1.010;2022-12-18T01:18:28;101206.63;;;-2.21;84.52
62946;BME280;52164;52.212;-1.010;2022-12-18T01:20:54;101207.21;;;-2.25;84.51
62946;BME280;52164;52.212;-1.010;2022-12-18T01:23:19;101206.14;;;-2.32;84.55
62946;BME280;52164;52.212;-1.010;2022-12-18T01:25:44;101200.28;;;-2.36;84.69
62946;BME280;52164;52.212;-1.010;2022-12-18T01:28:09;101199.04;;;-2.39;84.73
62946;BME280;52164;52.212;-1.010;2022-12-18T01:30:35;101201.18;;;-2.41;84.95
62946;BME280;52164;52.212;-1.010;2022-12-18T01:33:00;101196.02;;;-2.42;84.98
62946;BME280;52164;52.212;-1.010;2022-12-18T01:35:25;101188.38;;;-2.44;84.91
62946;BME280;52164;52.212;-1.010;2022-12-18T01:37:54;101177.92;;;-2.47;85.16
62946;BME280;52164;52.212;-1.010;2022-12-18T01:40:19;101175.21;;;-2.48;85.36
62946;BME280;52164;52.212;-1.010;2022-12-18T01:42:48;101170.91;;;-2.50;85.27
62946;BME280;52164;52.212;-1.010;2022-12-18T01:52:31;101172.27;;;-2.61;85.35
62946;BME280;52164;52.212;-1.010;2022-12-18T01:54:57;101176.66;;;-2.63;85.50
62946;BME280;52164;52.212;-1.010;2022-12-18T01:57:24;101171.48;;;-2.65;85.52
62946;BME280;52164;52.212;-1.010;2022-12-18T01:59:50;101176.49;;;-2.67;85.79
62946;BME280;52164;52.212;-1.010;2022-12-18T02:02:17;101182.70;;;-2.68;85.62
62946;BME280;52164;52.212;-1.010;2022-12-18T02:04:43;101189.94;;;-2.67;85.60
62946;BME280;52164;52.212;-1.010;2022-12-18T02:07:12;101190.74;;;-2.65;85.68
62946;BME280;52164;52.212;-1.010;2022-12-18T02:09:42;101190.66;;;-2.63;85.54
62946;BME280;52164;52.212;-1.010;2022-12-18T02:12:13;101190.27;;;-2.58;85.67
62946;BME280;52164;52.212;-1.010;2022-12-18T02:14:43;101193.91;;;-2.54;85.64
62946;BME280;52164;52.212;-1.010;2022-12-18T02:17:11;101194.00;;;-2.49;85.65
62946;BME280;52164;52.212;-1.010;2022-12-18T02:19:48;101195.19;;;-2.47;85.02
62946;BME280;52164;52.212;-1.010;2022-12-18T02:25:18;101201.09;;;-2.50;85.31
62946;BME280;52164;52.212;-1.010;2022-12-18T02:27:47;101201.14;;;-2.50;85.19
62946;BME280;52164;52.212;-1.010;2022-12-18T02:30:14;101202.81;;;-2.51;85.01
62946;BME280;52164;52.212;-1.010;2022-12-18T02:32:42;101209.48;;;-2.53;84.99
62946;BME280;52164;52.212;-1.010;2022-12-18T02:35:10;101211.22;;;-2.56;84.75
62946;BME280;52164;52.212;-1.010;2022-12-18T02:37:36;101216.65;;;-2.61;84.77
62946;BME280;52164;52.212;-1.010;2022-12-18T02:40:04;101217.08;;;-2.66;84.83
62946;BME280;52164;52.212;-1.010;2022-12-18T02:42:30;101223.99;;;-2.69;84.99
62946;BME280;52164;52.212;-1.010;2022-12-18T02:44:55;101226.27;;;-2.72;85.22
62946;BME280;52164;52.212;-1.010;2022-12-18T02:47:22;101224.52;;;-2.75;85.08
62946;BME280;52164;52.212;-1.010;2022-12-18T02:49:54;101221.50;;;-2.78;85.23
62946;BME280;52164;52.212;-1.010;2022-12-18T02:55:08;101211.54;;;-2.84;85.37
62946;BME280;52164;52.212;-1.010;2022-12-18T03:04:43;101201.08;;;-2.92;85.42
62946;BME280;52164;52.212;-1.010;2022-12-18T03:05:17;101198.94;;;-2.95;85.41
62946;BME280;52164;52.212;-1.010;2022-12-18T03:07:46;101182.00;;;-2.97;85.48
62946;BME280;52164;52.212;-1.010;2022-12-18T03:10:14;101171.09;;;-2.98;85.59
62946;BME280;52164;52.212;-1.010;2022-12-18T03:12:43;101164.11;;;-2.99;85.74
62946;BME280;52164;52.212;-1.010;2022-12-18T03:15:15;101164.93;;;-2.97;85.87
62946;BME280;52164;52.212;-1.010;2022-12-18T03:17:44;101165.12;;;-2.94;85.90
62946;BME280;52164;52.212;-1.010;2022-12-18T03:20:13;101163.05;;;-2.91;86.09
62946;BME280;52164;52.212;-1.010;2022-12-18T03:22:39;101161.25;;;-2.86;86.16
62946;BME280;52164;52.212;-1.010;2022-12-18T03:25:07;101162.48;;;-2.80;86.06
62946;BME280;52164;52.212;-1.010;2022-12-18T03:27:35;101167.70;;;-2.76;85.92
62946;BME280;52164;52.212;-1.010;2022-12-18T03:30:03;101165.45;;;-2.72;85.85
62946;BME280;52164;52.212;-1.010;2022-12-18T03:32:35;101167.70;;;-2.67;85.75
62946;BME280;52164;52.212;-1.010;2022-12-18T03:35:03;101166.76;;;-2.60;86.05
62946;BME280;52164;52.212;-1.010;2022-12-18T03:37:30;101165.33;;;-2.52;86.01
62946;BME280;52164;52.212;-1.010;2022-12-18T03:39:55;101151.41;;;-2.45;85.76
62946;BME280;52164;52.212;-1.010;2022-12-18T03:42:39;101144.86;;;-2.41;85.70
62946;BME280;52164;52.212;-1.010;2022-12-18T03:47:35;101130.55;;;-2.38;85.65
62946;BME280;52164;52.212;-1.010;2022-12-18T03:50:07;101127.13;;;-2.37;85.42
62946;BME280;52164;52.212;-1.010;2022-12-18T03:52:36;101121.55;;;-2.36;85.53
62946;BME280;52164;52.212;-1.010;2022-12-18T03:55:03;101125.15;;;-2.38;85.54
62946;BME280;52164;52.212;-1.010;2022-12-18T03:57:30;101130.32;;;-2.39;85.52
62946;BME280;52164;52.212;-1.010;2022-12-18T04:00:00;101134.08;;;-2.40;85.48
62946;BME280;52164;52.212;-1.010;2022-12-18T04:02:27;101133.36;;;-2.41;85.72
62946;BME280;52164;52.212;-1.010;2022-12-18T04:04:55;101128.17;;;-2.40;85.63
62946;BME280;52164;52.212;-1.010;2022-12-18T04:07:22;101113.19;;;-2.39;85.74
62946;BME280;52164;52.212;-1.010;2022-12-18T04:09:48;101113.42;;;-2.38;85.63
62946;BME280;52164;52.212;-1.010;2022-12-18T04:12:15;101108.34;;;-2.38;85.76
62946;BME280;52164;52.212;-1.010;2022-12-18T04:14:40;101096.34;;;-2.37;85.90
62946;BME280;52164;52.212;-1.010;2022-12-18T04:17:05;101088.66;;;-2.37;85.81
62946;BME280;52164;52.212;-1.010;2022-12-18T04:19:31;101085.13;;;-2.38;86.06
62946;BME280;52164;52.212;-1.010;2022-12-18T04:21:58;101092.80;;;-2.38;86.01
62946;BME280;52164;52.212;-1.010;2022-12-18T04:24:24;101095.48;;;-2.37;86.08
62946;BME280;52164;52.212;-1.010;2022-12-18T04:26:49;101094.41;;;-2.34;86.23
62946;BME280;52164;52.212;-1.010;2022-12-18T04:29:14;101089.55;;;-2.31;86.35
62946;BME280;52164;52.212;-1.010;2022-12-18T04:31:39;101078.38;;;-2.27;86.54
62946;BME280;52164;52.212;-1.010;2022-12-18T04:34:05;101077.83;;;-2.22;86.62
62946;BME280;52164;52.212;-1.010;2022-12-18T04:36:30;101075.96;;;-2.18;86.49
62946;BME280;52164;52.212;-1.010;2022-12-18T04:38:55;101065.73;;;-2.14;86.41
62946;BME280;52164;52.212;-1.010;2022-12-18T04:41:21;101063.48;;;-2.08;86.43
62946;BME280;52164;52.212;-1.010;2022-12-18T04:43:46;101065.19;;;-2.03;86.23
62946;BME280;52164;52.212;-1.010;2022-12-18T04:46:11;101075.66;;;-1.97;86.07
62946;BME280;52164;52.212;-1.010;2022-12-18T04:48:37;101067.77;;;-1.94;85.89
62946;BME280;52164;52.212;-1.010;2022-12-18T04:51:03;101067.11;;;-1.91;85.70
62946;BME280;52164;52.212;-1.010;2022-12-18T04:53:28;101063.08;;;-1.91;85.47
62946;BME280;52164;52.212;-1.010;2022-12-18T04:56:02;101047.96;;;-1.92;85.46
62946;BME280;52164;52.212;-1.010;2022-12-18T04:58:28;101028.98;;;-1.93;85.48
62946;BME280;52164;52.212;-1.010;2022-12-18T05:00:53;101018.77;;;-1.98;85.07
62946;BME280;52164;52.212;-1.010;2022-12-18T05:03:19;101011.52;;;-2.02;85.20
62946;BME280;52164;52.212;-1.010;2022-12-18T05:05:44;101000.88;;;-2.05;85.28
62946;BME280;52164;52.212;-1.010;2022-12-18T05:08:09;100992.63;;;-2.08;85.21
62946;BME280;52164;52.212;-1.010;2022-12-18T05:10:34;100986.98;;;-2.12;85.17
62946;BME280;52164;52.212;-1.010;2022-12-18T05:13:00;100988.86;;;-2.16;85.16
62946;BME280;52164;52.212;-1.010;2022-12-18T05:15:27;100977.64;;;-2.19;85.13
62946;BME280;52164;52.212;-1.010;2022-12-18T05:17:53;100969.42;;;-2.22;85.40
62946;BME280;52164;52.212;-1.010;2022-12-18T05:20:18;100957.73;;;-2.25;85.41
62946;BME280;52164;52.212;-1.010;2022-12-18T05:22:44;100955.33;;;-2.27;85.43
62946;BME280;52164;52.212;-1.010;2022-12-18T05:25:09;100966.39;;;-2.29;85.41
62946;BME280;52164;52.212;-1.010;2022-12-18T05:27:34;100960.09;;;-2.33;85.42
62946;BME280;52164;52.212;-1.010;2022-12-18T05:30:00;100957.33;;;-2.35;85.39
62946;BME280;52164;52.212;-1.010;2022-12-18T05:32:25;100965.06;;;-2.37;85.51
62946;BME280;52164;52.212;-1.010;2022-12-18T05:34:50;100964.40;;;-2.39;85.54
62946;BME280;52164;52.212;-1.010;2022-12-18T05:37:15;100966.81;;;-2.40;85.56
62946;BME280;52164;52.212;-1.010;2022-12-18T05:39:42;100974.54;;;-2.39;85.71
62946;BME280;52164;52.212;-1.010;2022-12-18T05:42:07;100975.36;;;-2.37;85.74
62946;BME280;52164;52.212;-1.010;2022-12-18T05:44:32;100964.66;;;-2.35;85.80
62946;BME280;52164;52.212;-1.010;2022-12-18T05:46:59;100962.06;;;-2.32;85.97
62946;BME280;52164;52.212;-1.010;2022-12-18T05:49:24;100957.09;;;-2.26;86.03
62946;BME280;52164;52.212;-1.010;2022-12-18T05:51:49;100947.39;;;-2.22;85.82
62946;BME280;52164;52.212;-1.010;2022-12-18T05:54:14;100950.14;;;-2.17;85.89
62946;BME280;52164;52.212;-1.010;2022-12-18T05:56:40;100962.94;;;-2.14;85.82
62946;BME280;52164;52.212;-1.010;2022-12-18T05:59:05;100965.94;;;-2.10;85.70
62946;BME280;52164;52.212;-1.010;2022-12-18T06:01:30;100957.11;;;-2.08;85.70
62946;BME280;52164;52.212;-1.010;2022-12-18T06:03:56;100946.70;;;-2.07;85.47
62946;BME280;52164;52.212;-1.010;2022-12-18T06:06:22;100942.48;;;-2.07;85.34
62946;BME280;52164;52.212;-1.010;2022-12-18T06:08:49;100933.00;;;-2.11;85.37
62946;BME280;52164;52.212;-1.010;2022-12-18T06:11:16;100929.86;;;-2.14;85.29
62946;BME280;52164;52.212;-1.010;2022-12-18T06:13:42;100936.48;;;-2.17;85.35
62946;BME280;52164;52.212;-1.010;2022-12-18T06:16:07;100936.56;;;-2.19;85.35
62946;BME280;52164;52.212;-1.010;2022-12-18T06:18:33;100926.42;;;-2.22;85.29
62946;BME280;52164;52.212;-1.010;2022-12-18T06:20:58;100924.13;;;-2.25;85.33
62946;BME280;52164;52.212;-1.010;2022-12-18T06:23:24;100923.10;;;-2.28;85.37
62946;BME280;52164;52.212;-1.010;2022-12-18T06:25:50;100922.30;;;-2.30;85.36
62946;BME280;52164;52.212;-1.010;2022-12-18T06:28:15;100927.23;;;-2.32;85.51
62946;BME280;52164;52.212;-1.010;2022-12-18T06:30:43;100922.52;;;-2.32;85.48
62946;BME280;52164;52.212;-1.010;2022-12-18T06:33:08;100913.09;;;-2.32;85.62
62946;BME280;52164;52.212;-1.010;2022-12-18T06:35:34;100917.60;;;-2.30;85.74
62946;BME280;52164;52.212;-1.010;2022-12-18T06:38:00;100917.14;;;-2.28;85.69
62946;BME280;52164;52.212;-1.010;2022-12-18T06:40:25;100920.93;;;-2.26;85.86
62946;BME280;52164;52.212;-1.010;2022-12-18T06:42:51;100925.89;;;-2.25;85.73
62946;BME280;52164;52.212;-1.010;2022-12-18T06:45:16;100929.48;;;-2.23;85.86
62946;BME280;52164;52.212;-1.010;2022-12-18T06:47:41;100926.45;;;-2.21;85.87
62946;BME280;52164;52.212;-1.010;2022-12-18T06:50:07;100932.27;;;-2.18;86.00
62946;BME280;52164;52.212;-1.010;2022-12-18T06:52:33;100933.88;;;-2.14;85.83
62946;BME280;52164;52.212;-1.010;2022-12-18T06:54:58;100930.81;;;-2.09;85.96
62946;BME280;52164;52.212;-1.010;2022-12-18T06:57:23;100921.15;;;-2.04;85.94
62946;BME280;52164;52.212;-1.010;2022-12-18T06:59:49;100911.02;;;-1.98;86.15
62946;BME280;52164;52.212;-1.010;2022-12-18T07:02:14;100910.52;;;-1.91;86.14
62946;BME280;52164;52.212;-1.010;2022-12-18T07:04:39;100901.73;;;-1.85;86.12
62946;BME280;52164;52.212;-1.010;2022-12-18T07:07:05;100899.40;;;-1.80;86.07
62946;BME280;52164;52.212;-1.010;2022-12-18T07:09:30;100886.92;;;-1.75;86.16
62946;BME280;52164;52.212;-1.010;2022-12-18T07:11:55;100887.05;;;-1.69;86.14
62946;BME280;52164;52.212;-1.010;2022-12-18T07:14:20;100887.34;;;-1.64;86.01
62946;BME280;52164;52.212;-1.010;2022-12-18T07:16:46;100884.23;;;-1.60;85.95
62946;BME280;52164;52.212;-1.010;2022-12-18T07:19:11;100877.67;;;-1.58;85.87
62946;BME280;52164;52.212;-1.010;2022-12-18T07:21:37;100863.25;;;-1.56;85.80
62946;BME280;52164;52.212;-1.010;2022-12-18T07:24:02;100849.63;;;-1.56;85.74
62946;BME280;52164;52.212;-1.010;2022-12-18T07:26:27;100858.73;;;-1.56;85.70
62946;BME280;52164;52.212;-1.010;2022-12-18T07:28:55;100866.09;;;-1.55;85.69
62946;BME280;52164;52.212;-1.010;2022-12-18T07:31:20;100855.34;;;-1.57;85.62
62946;BME280;52164;52.212;-1.010;2022-12-18T07:33:46;100853.56;;;-1.57;85.64
62946;BME280;52164;52.212;-1.010;2022-12-18T07:36:12;100852.83;;;-1.58;85.78
62946;BME280;52164;52.212;-1.010;2022-12-18T07:38:37;100844.26;;;-1.58;85.79
62946;BME280;52164;52.212;-1.010;2022-12-18T07:41:04;100844.95;;;-1.58;85.79
62946;BME280;52164;52.212;-1.010;2022-12-18T07:43:29;100844.54;;;-1.60;85.79
62946;BME280;52164;52.212;-1.010;2022-12-18T07:45:55;100846.05;;;-1.61;85.86
62946;BME280;52164;52.212;-1.010;2022-12-18T07:48:20;100852.71;;;-1.61;85.96
62946;BME280;52164;52.212;-1.010;2022-12-18T07:50:46;100863.31;;;-1.58;86.02
62946;BME280;52164;52.212;-1.010;2022-12-18T07:53:11;100868.27;;;-1.54;85.92
62946;BME280;52164;52.212;-1.010;2022-12-18T07:55:39;100870.28;;;-1.49;85.92
62946;BME280;52164;52.212;-1.010;2022-12-18T07:58:05;100874.52;;;-1.46;86.00
62946;BME280;52164;52.212;-1.010;2022-12-18T08:00:30;100876.75;;;-1.40;86.14
62946;BME280;52164;52.212;-1.010;2022-12-18T08:02:56;100883.75;;;-1.33;86.17
62946;BME280;52164;52.212;-1.010;2022-12-18T08:05:21;100881.38;;;-1.29;86.05
62946;BME280;52164;52.212;-1.010;2022-12-18T08:07:47;100886.59;;;-1.23;86.01
62946;BME280;52164;52.212;-1.010;2022-12-18T08:10:16;100887.08;;;-1.17;85.97
62946;BME280;52164;52.212;-1.010;2022-12-18T08:12:41;100883.65;;;-1.12;85.98
62946;BME280;52164;52.212;-1.010;2022-12-18T08:15:07;100876.85;;;-1.09;85.84
62946;BME280;52164;52.212;-1.010;2022-12-18T08:17:32;100881.13;;;-1.07;85.78
62946;BME280;52164;52.212;-1.010;2022-12-18T08:19:57;100873.35;;;-1.05;85.82
62946;BME280;52164;52.212;-1.010;2022-12-18T08:22:23;100870.58;;;-1.04;85.54
62946;BME280;52164;52.212;-1.010;2022-12-18T08:24:48;100867.33;;;-1.02;85.77
62946;BME280;52164;52.212;-1.010;2022-12-18T08:27:13;100865.79;;;-1.02;85.66
62946;BME280;52164;52.212;-1.010;2022-12-18T08:29:39;100867.15;;;-1.02;85.55
62946;BME280;52164;52.212;-1.010;2022-12-18T08:32:04;100862.27;;;-1.02;85.58
62946;BME280;52164;52.212;-1.010;2022-12-18T08:34:29;100863.88;;;-1.02;85.65
62946;BME280;52164;52.212;-1.010;2022-12-18T08:36:55;100861.95;;;-1.01;85.56
62946;BME280;52164;52.212;-1.010;2022-12-18T08:39:20;100872.85;;;-1.01;85.57
62946;BME280;52164;52.212;-1.010;2022-12-18T08:41:45;100856.11;;;-0.99;85.48
62946;BME280;52164;52.212;-1.010;2022-12-18T08:44:30;100857.73;;;-0.98;85.53
62946;BME280;52164;52.212;-1.010;2022-12-18T08:47:03;100874.44;;;-0.97;85.55
62946;BME280;52164;52.212;-1.010;2022-12-18T08:49:29;100879.66;;;-0.98;85.50
62946;BME280;52164;52.212;-1.010;2022-12-18T08:51:55;100875.47;;;-0.98;85.61
62946;BME280;52164;52.212;-1.010;2022-12-18T08:54:20;100883.92;;;-0.97;85.55
62946;BME280;52164;52.212;-1.010;2022-12-18T08:56:49;100878.33;;;-0.94;85.70
62946;BME280;52164;52.212;-1.010;2022-12-18T08:59:15;100873.77;;;-0.90;85.78
62946;BME280;52164;52.212;-1.010;2022-12-18T09:01:40;100862.19;;;-0.87;85.59
62946;BME280;52164;52.212;-1.010;2022-12-18T09:04:05;100858.18;;;-0.83;85.90
62946;BME280;52164;52.212;-1.010;2022-12-18T09:06:31;100856.73;;;-0.77;85.91
62946;BME280;52164;52.212;-1.010;2022-12-18T09:08:56;100855.95;;;-0.68;85.99
62946;BME280;52164;52.212;-1.010;2022-12-18T09:11:25;100854.89;;;-0.58;85.84
62946;BME280;52164;52.212;-1.010;2022-12-18T09:13:51;100854.85;;;-0.48;85.68
62946;BME280;52164;52.212;-1.010;2022-12-18T09:16:16;100859.23;;;-0.41;85.67
62946;BME280;52164;52.212;-1.010;2022-12-18T09:18:42;100863.02;;;-0.35;85.38
62946;BME280;52164;52.212;-1.010;2022-12-18T09:21:11;100861.38;;;-0.33;85.26
62946;BME280;52164;52.212;-1.010;2022-12-18T09:23:37;100863.54;;;-0.32;85.08
62946;BME280;52164;52.212;-1.010;2022-12-18T09:26:02;100851.11;;;-0.31;85.04
62946;BME280;52164;52.212;-1.010;2022-12-18T09:28:27;100834.25;;;-0.32;84.85
62946;BME280;52164;52.212;-1.010;2022-12-18T09:30:53;100834.25;;;-0.32;84.83
62946;BME280;52164;52.212;-1.010;2022-12-18T09:33:18;100845.20;;;-0.30;84.88
62946;BME280;52164;52.212;-1.010;2022-12-18T09:35:44;100849.31;;;-0.29;84.94
62946;BME280;52164;52.212;-1.010;2022-12-18T09:38:12;100860.51;;;-0.26;84.80
62946;BME280;52164;52.212;-1.010;2022-12-18T09:40:53;100864.17;;;-0.23;84.89
62946;BME280;52164;52.212;-1.010;2022-12-18T09:43:24;100847.94;;;-0.21;84.82
62946;BME280;52164;52.212;-1.010;2022-12-18T09:45:53;100834.79;;;-0.21;84.76
62946;BME280;52164;52.212;-1.010;2022-12-18T09:48:23;100825.19;;;-0.20;84.83
62946;BME280;52164;52.212;-1.010;2022-12-18T09:50:50;100824.52;;;-0.20;84.58
62946;BME280;52164;52.212;-1.010;2022-12-18T09:53:19;100827.73;;;-0.18;84.86
62946;BME280;52164;52.212;-1.010;2022-12-18T09:55:46;100819.66;;;-0.14;84.83
62946;BME280;52164;52.212;-1.010;2022-12-18T10:00:39;100813.39;;;-0.02;84.69
62946;BME280;52164;52.212;-1.010;2022-12-18T10:03:13;100814.25;;;0.05;84.86
62946;BME280;52164;52.212;-1.010;2022-12-18T10:08:10;100793.45;;;0.18;84.96
62946;BME280;52164;52.212;-1.010;2022-12-18T10:10:43;100781.11;;;0.25;84.91
62946;BME280;52164;52.212;-1.010;2022-12-18T10:15:45;100768.67;;;0.32;84.67
62946;BME280;52164;52.212;-1.010;2022-12-18T10:18:18;100756.80;;;0.38;84.56
62946;BME280;52164;52.212;-1.010;2022-12-18T10:20:49;100754.30;;;0.41;84.40
62946;BME280;52164;52.212;-1.010;2022-12-18T10:23:26;100744.73;;;0.43;84.23
62946;BME280;52164;52.212;-1.010;2022-12-18T10:25:55;100739.73;;;0.45;84.39
62946;BME280;52164;52.212;-1.010;2022-12-18T10:28:22;100730.92;;;0.44;84.09
62946;BME280;52164;52.212;-1.010;2022-12-18T10:30:48;100731.40;;;0.43;84.30
62946;BME280;52164;52.212;-1.010;2022-12-18T10:33:16;100728.70;;;0.42;84.23
62946;BME280;52164;52.212;-1.010;2022-12-18T10:35:43;100732.62;;;0.39;84.27
62946;BME280;52164;52.212;-1.010;2022-12-18T10:41:23;100729.13;;;0.36;84.33
62946;BME280;52164;52.212;-1.010;2022-12-18T10:43:23;100722.61;;;0.35;84.35
62946;BME280;52164;52.212;-1.010;2022-12-18T10:46:08;100710.92;;;0.37;84.44
62946;BME280;52164;52.212;-1.010;2022-12-18T10:48:35;100702.48;;;0.40;84.52
62946;BME280;52164;52.212;-1.010;2022-12-18T10:51:01;100696.14;;;0.44;84.45
62946;BME280;52164;52.212;-1.010;2022-12-18T10:53:28;100683.60;;;0.46;84.49
62946;BME280;52164;52.212;-1.010;2022-12-18T10:55:55;100675.52;;;0.50;84.46
62946;BME280;52164;52.212;-1.010;2022-12-18T10:58:27;100667.08;;;0.55;84.73
62946;BME280;52164;52.212;-1.010;2022-12-18T11:01:11;100660.58;;;0.58;84.46
62946;BME280;52164;52.212;-1.010;2022-12-18T11:03:40;100661.63;;;0.63;84.41
62946;BME280;52164;52.212;-1.010;2022-12-18T11:06:09;100659.98;;;0.65;84.41
62946;BME280;52164;52.212;-1.010;2022-12-18T11:08:35;100650.52;;;0.66;84.37
62946;BME280;52164;52.212;-1.010;2022-12-18T11:11:00;100639.23;;;0.65;84.47
62946;BME280;52164;52.212;-1.010;2022-12-18T11:13:26;100632.73;;;0.65;84.28
62946;BME280;52164;52.212;-1.010;2022-12-18T11:15:53;100622.00;;;0.64;84.22
62946;BME280;52164;52.212;-1.010;2022-12-18T11:18:20;100613.38;;;0.64;84.12
62946;BME280;52164;52.212;-1.010;2022-12-18T11:21:18;100606.23;;;0.65;84.29
62946;BME280;52164;52.212;-1.010;2022-12-18T11:23:32;100606.27;;;0.66;84.31
62946;BME280;52164;52.212;-1.010;2022-12-18T11:25:59;100612.55;;;0.69;84.30
62946;BME280;52164;52.212;-1.010;2022-12-18T11:28:29;100613.77;;;0.74;84.34
62946;BME280;52164;52.212;-1.010;2022-12-18T11:31:30;100617.33;;;0.79;84.23
62946;BME280;52164;52.212;-1.010;2022-12-18T11:34:09;100614.88;;;0.83;84.48
62946;BME280;52164;52.212;-1.010;2022-12-18T11:36:31;100608.11;;;0.85;84.01
62946;BME280;52164;52.212;-1.010;2022-12-18T11:38:58;100586.92;;;0.87;84.03
62946;BME280;52164;52.212;-1.010;2022-12-18T11:41:34;100583.70;;;0.90;83.93
62946;BME280;52164;52.212;-1.010;2022-12-18T11:44:24;100593.04;;;0.91;84.02
62946;BME280;52164;52.212;-1.010;2022-12-18T11:46:52;100602.30;;;0.94;83.67
62946;BME280;52164;52.212;-1.010;2022-12-18T11:49:22;100599.94;;;0.96;83.76
62946;BME280;52164;52.212;-1.010;2022-12-18T11:51:53;100593.83;;;0.98;83.85
62946;BME280;52164;52.212;-1.010;2022-12-18T11:54:21;100589.53;;;1.00;83.74
62946;BME280;52164;52.212;-1.010;2022-12-18T11:56:48;100585.91;;;1.02;83.81
62946;BME280;52164;52.212;-1.010;2022-12-18T11:59:24;100583.05;;;1.05;83.68
62946;BME280;52164;52.212;-1.010;2022-12-18T12:02:02;100575.05;;;1.07;83.82
62946;BME280;52164;52.212;-1.010;2022-12-18T12:04:41;100565.99;;;1.10;83.54
62946;BME280;52164;52.212;-1.010;2022-12-18T12:09:40;100534.60;;;1.15;83.56
62946;BME280;52164;52.212;-1.010;2022-12-18T12:12:22;100526.11;;;1.19;83.74
62946;BME280;52164;52.212;-1.010;2022-12-18T12:15:26;100512.36;;;1.22;83.53
62946;BME280;52164;52.212;-1.010;2022-12-18T12:17:40;100499.35;;;1.27;83.38
62946;BME280;52164;52.212;-1.010;2022-12-18T12:24:48;100489.65;;;1.31;83.33
62946;BME280;52164;52.212;-1.010;2022-12-18T12:25:21;100480.05;;;1.34;83.34
62946;BME280;52164;52.212;-1.010;2022-12-18T12:28:11;100465.88;;;1.35;83.35
62946;BME280;52164;52.212;-1.010;2022-12-18T12:30:44;100462.69;;;1.35;83.15
62946;BME280;52164;52.212;-1.010;2022-12-18T12:33:22;100460.98;;;1.36;82.98
62946;BME280;52164;52.212;-1.010;2022-12-18T12:35:52;100453.80;;;1.37;83.25
62946;BME280;52164;52.212;-1.010;2022-12-18T12:40:47;100440.13;;;1.38;83.19
62946;BME280;52164;52.212;-1.010;2022-12-18T12:43:45;100431.41;;;1.40;83.72
62946;BME280;52164;52.212;-1.010;2022-12-18T12:46:01;100431.38;;;1.44;83.52
62946;BME280;52164;52.212;-1.010;2022-12-18T12:50:53;100421.10;;;1.52;83.20
62946;BME280;52164;52.212;-1.010;2022-12-18T12:53:23;100420.61;;;1.53;83.10
62946;BME280;52164;52.212;-1.010;2022-12-18T12:55:50;100423.02;;;1.52;83.40
62946;BME280;52164;52.212;-1.010;2022-12-18T12:58:23;100413.81;;;1.50;83.30
62946;BME280;52164;52.212;-1.010;2022-12-18T13:00:55;100410.42;;;1.48;83.11
62946;BME280;52164;52.212;-1.010;2022-12-18T13:03:34;100405.08;;;1.47;83.27
62946;BME280;52164;52.212;-1.010;2022-12-18T13:06:04;100403.98;;;1.45;83.29
62946;BME280;52164;52.212;-1.010;2022-12-18T13:08:51;100397.19;;;1.42;83.12
62946;BME280;52164;52.212;-1.010;2022-12-18T13:11:49;100397.33;;;1.41;83.43
62946;BME280;52164;52.212;-1.010;2022-12-18T13:14:24;100389.27;;;1.42;83.66
62946;BME280;52164;52.212;-1.010;2022-12-18T13:16:49;100385.77;;;1.43;83.85
62946;BME280;52164;52.212;-1.010;2022-12-18T13:19:23;100375.02;;;1.42;84.03
62946;BME280;52164;52.212;-1.010;2022-12-18T13:21:54;100370.98;;;1.42;84.07
62946;BME280;52164;52.212;-1.010;2022-12-18T13:24:23;100369.58;;;1.42;84.05
62946;BME280;52164;52.212;-1.010;2022-12-18T13:26:49;100367.48;;;1.43;84.31